createdAt,value
2017-12-17T10:55:15.542Z,664.00
2017-12-17T10:56:15.517Z,2344.00
2017-12-17T10:57:15.497Z,2452.00
2017-12-17T10:58:15.468Z,2512.00
2017-12-17T10:59:15.446Z,2540.00
2017-12-17T11:00:15.425Z,2548.00
2017-12-17T11:01:15.402Z,2596.00
2017-12-17T11:02:15.382Z,2600.00
2017-12-17T11:03:15.361Z,2620.00
2017-12-17T11:04:15.341Z,2612.00
2017-12-17T11:05:15.319Z,2636.00
2017-12-17T11:06:15.300Z,2640.00
2017-12-17T11:07:15.281Z,2756.00
2017-12-17T11:08:15.262Z,2736.00
2017-12-17T11:09:15.242Z,2772.00
2017-12-17T11:10:15.225Z,2804.00
2017-12-17T11:11:15.202Z,2904.00
2017-12-17T11:12:15.182Z,2984.00
2017-12-17T11:13:15.162Z,3028.00
2017-12-17T11:14:15.146Z,3020.00
2017-12-17T11:15:15.126Z,3044.00
2017-12-17T11:16:15.105Z,3248.00
2017-12-17T11:17:15.087Z,3268.00
2017-12-17T11:18:15.067Z,3236.00
2017-12-17T11:19:15.049Z,3264.00
2017-12-17T11:20:15.031Z,3436.00
2017-12-17T11:21:15.011Z,3380.00
2017-12-17T11:22:14.992Z,3392.00
2017-12-17T11:23:14.979Z,3468.00
2017-12-17T11:24:14.956Z,3532.00
2017-12-17T11:25:14.935Z,3520.00
2017-12-17T11:26:14.917Z,3512.00
2017-12-17T11:27:14.961Z,3596.00
2017-12-17T11:28:14.882Z,3676.00
2017-12-17T11:29:14.861Z,3660.00
2017-12-17T11:30:14.843Z,3832.00
2017-12-17T11:31:14.831Z,3972.00
2017-12-17T11:32:14.806Z,4076.00
2017-12-17T11:33:14.788Z,4112.00
2017-12-17T11:34:14.770Z,4080.00
2017-12-17T11:35:14.753Z,4184.00
2017-12-17T11:36:14.734Z,4236.00
2017-12-17T11:37:14.715Z,4284.00
2017-12-17T11:38:14.696Z,4280.00
2017-12-17T11:39:14.679Z,4380.00
2017-12-17T11:40:14.665Z,4520.00
2017-12-17T11:41:14.642Z,4476.00
2017-12-17T11:42:14.624Z,4600.00
2017-12-17T11:43:14.605Z,4608.00
2017-12-17T11:44:14.588Z,5012.00
2017-12-17T11:45:14.568Z,4956.00
2017-12-17T11:46:14.550Z,4960.00
2017-12-17T11:47:14.538Z,5004.00
2017-12-17T11:48:14.514Z,5264.00
2017-12-17T11:49:14.496Z,5288.00
2017-12-17T11:50:14.477Z,5452.00
2017-12-17T11:51:14.462Z,5540.00
2017-12-17T11:52:14.442Z,5568.00
2017-12-17T11:53:14.424Z,5700.00
2017-12-17T11:54:14.406Z,5760.00
2017-12-17T11:55:14.389Z,5632.00
2017-12-17T11:56:14.370Z,5792.00
2017-12-17T11:57:14.352Z,6024.00
2017-12-17T11:58:14.334Z,5948.00
2017-12-17T11:59:14.317Z,5960.00
2017-12-17T12:00:14.299Z,6012.00
2017-12-17T12:01:14.280Z,6044.00
2017-12-17T12:02:14.262Z,6052.00
2017-12-17T12:03:14.244Z,6176.00
2017-12-17T12:04:14.227Z,6264.00
2017-12-17T12:05:14.208Z,6004.00
2017-12-17T12:06:14.190Z,6052.00
2017-12-17T12:07:14.174Z,5832.00
2017-12-17T12:08:14.155Z,5700.00
2017-12-17T12:09:14.136Z,6404.00
2017-12-17T12:10:14.119Z,5980.00
2017-12-17T12:11:14.101Z,6148.00
2017-12-17T12:12:14.084Z,5784.00
2017-12-17T12:13:14.066Z,6272.00
2017-12-17T12:14:14.047Z,5968.00
2017-12-17T12:15:14.029Z,6480.00
2017-12-17T12:16:14.011Z,6056.00
2017-12-17T12:17:13.992Z,5940.00
2017-12-17T12:18:13.974Z,6256.00
2017-12-17T12:19:13.956Z,6372.00
2017-12-17T12:20:13.938Z,6264.00
2017-12-17T12:21:13.924Z,6216.00
2017-12-17T12:22:13.904Z,6352.00
2017-12-17T12:23:13.884Z,6372.00
2017-12-17T12:24:13.866Z,6564.00
2017-12-17T12:25:13.846Z,5756.00
2017-12-17T12:26:13.830Z,6476.00
2017-12-17T12:27:13.809Z,6196.00
2017-12-17T12:28:13.792Z,5792.00
2017-12-17T12:29:13.773Z,5720.00
2017-12-17T12:30:13.760Z,5684.00
2017-12-17T12:31:13.737Z,6168.00
2017-12-17T12:32:13.718Z,5860.00
2017-12-17T12:33:13.699Z,5920.00
2017-12-17T12:34:13.681Z,5504.00
2017-12-17T12:35:13.663Z,5852.00
2017-12-17T12:36:13.648Z,5812.00
2017-12-17T12:37:13.626Z,5808.00
2017-12-17T12:38:13.607Z,5928.00
2017-12-17T12:39:13.589Z,4808.00
2017-12-17T12:40:13.573Z,2464.00
2017-12-17T12:41:13.551Z,1804.00
2017-12-17T12:42:13.533Z,1736.00
2017-12-17T12:43:13.515Z,1576.00
2017-12-17T12:44:13.497Z,1704.00
2017-12-17T12:45:13.478Z,1672.00
2017-12-17T12:46:13.459Z,1632.00
2017-12-17T12:47:13.441Z,1624.00
2017-12-17T12:48:13.422Z,1540.00
2017-12-17T12:49:13.445Z,1564.00
2017-12-17T12:50:13.386Z,1584.00
2017-12-17T12:51:13.373Z,1564.00
2017-12-17T12:52:13.348Z,1568.00
2017-12-17T12:53:13.331Z,1524.00
2017-12-17T12:54:13.311Z,1488.00
2017-12-17T12:55:13.292Z,1464.00
2017-12-17T12:56:13.276Z,1412.00
2017-12-17T12:57:13.258Z,1368.00
2017-12-17T12:58:13.245Z,1360.00
2017-12-17T12:59:13.220Z,1432.00
2017-12-17T13:00:13.203Z,1448.00
2017-12-17T13:01:13.185Z,1448.00
2017-12-17T13:02:13.168Z,1472.00
2017-12-17T13:03:13.149Z,1484.00
2017-12-17T13:04:13.131Z,1508.00
2017-12-17T13:05:13.114Z,1492.00
2017-12-17T13:06:13.095Z,1532.00
2017-12-17T13:07:13.079Z,1512.00
2017-12-17T13:08:13.066Z,1488.00
2017-12-17T13:09:13.041Z,1452.00
2017-12-17T13:10:13.023Z,1432.00
2017-12-17T13:11:13.006Z,1452.00
2017-12-17T13:12:12.989Z,1396.00
2017-12-17T13:13:12.970Z,1272.00
2017-12-17T13:14:12.951Z,888.00
2017-12-17T13:15:12.958Z,960.00
2017-12-17T13:16:12.916Z,892.00
2017-12-17T13:17:12.898Z,1252.00
2017-12-17T13:18:12.880Z,1256.00
2017-12-17T13:19:12.863Z,1252.00
2017-12-17T13:20:12.844Z,1204.00
2017-12-17T13:21:12.826Z,1180.00
2017-12-17T13:22:12.808Z,1172.00
2017-12-17T13:23:12.789Z,1148.00
2017-12-17T13:24:12.772Z,1092.00
2017-12-17T13:25:12.752Z,1072.00
2017-12-17T13:26:12.736Z,1044.00
2017-12-17T13:27:12.716Z,1048.00
2017-12-17T13:28:12.698Z,1004.00
2017-12-17T13:29:12.682Z,1056.00
2017-12-17T13:30:12.664Z,1048.00
2017-12-17T13:31:12.646Z,984.00
2017-12-17T13:32:12.626Z,956.00
2017-12-17T13:33:12.608Z,896.00
2017-12-17T13:34:12.590Z,896.00
2017-12-17T13:35:12.572Z,864.00
2017-12-17T13:36:12.554Z,824.00
2017-12-17T13:37:12.535Z,756.00
2017-12-17T13:38:12.518Z,660.00
2017-12-17T13:39:12.502Z,624.00
2017-12-17T13:40:12.489Z,656.00
2017-12-17T13:41:12.462Z,668.00
2017-12-17T13:42:12.446Z,696.00
2017-12-17T13:43:12.427Z,688.00
2017-12-17T13:44:12.409Z,648.00
2017-12-17T13:45:12.392Z,644.00
2017-12-17T13:46:12.373Z,648.00
2017-12-17T13:47:12.355Z,640.00
2017-12-17T13:48:12.338Z,632.00
2017-12-17T13:49:12.319Z,624.00
2017-12-17T13:50:12.301Z,600.00
2017-12-17T13:51:12.282Z,588.00
2017-12-17T13:52:12.266Z,588.00
2017-12-17T13:53:12.245Z,584.00
2017-12-17T13:54:12.228Z,588.00
2017-12-17T13:55:12.210Z,580.00
2017-12-17T13:56:12.191Z,568.00
2017-12-17T13:57:12.173Z,568.00
2017-12-17T13:58:12.155Z,572.00
2017-12-17T13:59:12.136Z,576.00
2017-12-17T14:00:12.118Z,568.00
2017-12-17T14:01:12.214Z,544.00
2017-12-17T14:02:12.079Z,548.00
2017-12-17T14:03:12.062Z,540.00
2017-12-17T14:04:12.043Z,540.00
2017-12-17T14:05:12.024Z,540.00
2017-12-17T14:06:12.006Z,540.00
2017-12-17T14:07:11.987Z,536.00
2017-12-17T14:08:11.968Z,532.00
2017-12-17T14:09:11.949Z,528.00
2017-12-17T14:10:11.930Z,524.00
2017-12-17T14:11:11.911Z,524.00
2017-12-17T14:12:11.892Z,512.00
2017-12-17T14:13:11.872Z,496.00
2017-12-17T14:14:11.853Z,484.00
2017-12-17T14:15:11.834Z,460.00
2017-12-17T14:16:11.815Z,448.00
2017-12-17T14:17:11.795Z,436.00
2017-12-17T14:18:11.777Z,428.00
2017-12-17T14:19:11.760Z,420.00
2017-12-17T14:20:11.738Z,420.00
2017-12-17T14:21:11.717Z,416.00
2017-12-17T14:22:11.698Z,404.00
2017-12-17T14:23:11.679Z,388.00
2017-12-17T14:24:11.660Z,380.00
2017-12-17T14:25:11.639Z,372.00
2017-12-17T14:26:11.620Z,360.00
2017-12-17T14:27:11.601Z,352.00
2017-12-17T14:28:11.582Z,344.00
2017-12-17T14:29:11.561Z,344.00
2017-12-17T14:30:11.543Z,336.00
2017-12-17T14:31:11.522Z,328.00
2017-12-17T14:32:11.503Z,308.00
2017-12-17T14:33:11.484Z,296.00
2017-12-17T14:34:11.464Z,288.00
2017-12-17T14:35:11.444Z,272.00
2017-12-17T14:36:11.425Z,264.00
2017-12-17T14:37:11.405Z,256.00
2017-12-17T14:38:11.384Z,248.00
2017-12-17T14:39:11.365Z,244.00
2017-12-17T14:40:11.347Z,232.00
2017-12-17T14:41:11.325Z,224.00
2017-12-17T14:42:11.305Z,212.00
2017-12-17T14:43:11.286Z,204.00
2017-12-17T14:44:11.266Z,192.00
2017-12-17T14:45:11.246Z,192.00
2017-12-17T14:46:11.226Z,184.00
2017-12-17T14:47:11.205Z,184.00
2017-12-17T14:48:11.186Z,180.00
2017-12-17T14:49:11.165Z,168.00
2017-12-17T14:50:11.148Z,164.00
2017-12-17T14:51:11.126Z,156.00
2017-12-17T14:52:11.105Z,148.00
2017-12-17T14:53:11.084Z,148.00
2017-12-17T14:54:11.065Z,144.00
2017-12-17T14:55:11.044Z,136.00
2017-12-17T14:56:11.027Z,132.00
2017-12-17T14:57:11.008Z,124.00
2017-12-17T14:58:10.983Z,124.00
2017-12-17T14:59:10.963Z,116.00
2017-12-17T15:00:10.943Z,112.00
2017-12-17T15:01:10.921Z,108.00
2017-12-17T15:02:10.900Z,104.00
2017-12-17T15:03:10.882Z,96.00
2017-12-17T15:04:10.874Z,96.00
2017-12-17T15:05:10.839Z,88.00
2017-12-17T15:06:10.819Z,84.00
2017-12-17T15:07:10.797Z,84.00
2017-12-17T15:08:10.777Z,80.00
2017-12-17T15:09:10.756Z,76.00
2017-12-17T15:10:10.736Z,68.00
2017-12-17T15:11:10.715Z,64.00
2017-12-17T15:12:10.694Z,60.00
2017-12-17T15:13:10.673Z,56.00
2017-12-17T15:14:10.652Z,48.00
2017-12-17T15:15:10.632Z,44.00
2017-12-17T15:16:10.610Z,56.00
2017-12-17T15:17:10.588Z,48.00
2017-12-17T15:18:10.571Z,48.00
2017-12-17T15:19:10.548Z,44.00
2017-12-17T15:20:10.526Z,40.00
2017-12-17T15:21:10.508Z,40.00
2017-12-17T15:22:10.484Z,40.00
2017-12-17T15:23:10.464Z,40.00
2017-12-17T15:24:10.445Z,36.00
2017-12-17T15:25:10.420Z,36.00
2017-12-17T15:26:10.399Z,36.00
2017-12-17T15:27:10.378Z,32.00
2017-12-17T15:29:10.359Z,28.00
2017-12-17T15:30:10.346Z,28.00
2017-12-17T15:31:10.311Z,28.00
2017-12-17T15:32:10.274Z,28.00
2017-12-17T15:33:10.249Z,24.00
2017-12-17T15:34:10.227Z,24.00
2017-12-17T15:35:10.206Z,24.00
2017-12-17T15:36:10.185Z,24.00
2017-12-17T15:37:10.162Z,24.00
2017-12-17T15:38:10.142Z,20.00
2017-12-17T15:39:10.120Z,20.00
2017-12-17T15:40:10.098Z,20.00
2017-12-17T15:41:10.077Z,16.00
2017-12-17T15:42:10.054Z,16.00
2017-12-17T15:43:10.034Z,16.00
2017-12-17T15:44:10.012Z,16.00
2017-12-17T15:45:09.992Z,16.00
2017-12-17T15:46:09.969Z,16.00
2017-12-17T15:47:09.946Z,16.00
2017-12-17T15:48:09.926Z,16.00
2017-12-17T15:49:09.902Z,16.00
2017-12-17T15:50:09.881Z,16.00
2017-12-17T15:51:09.860Z,16.00
2017-12-17T15:52:09.839Z,16.00
2017-12-17T15:53:09.816Z,16.00
2017-12-17T15:54:09.862Z,16.00
2017-12-17T15:55:09.775Z,12.00
2017-12-17T15:56:09.755Z,12.00
2017-12-17T15:57:09.728Z,12.00
2017-12-17T15:58:09.712Z,12.00
2017-12-17T15:59:09.686Z,12.00
2017-12-17T16:00:09.665Z,12.00
2017-12-17T16:01:09.643Z,12.00
2017-12-17T16:02:09.621Z,12.00
2017-12-17T16:03:09.599Z,12.00
2017-12-17T16:04:09.579Z,12.00
2017-12-17T16:05:09.558Z,12.00
2017-12-17T16:06:09.535Z,12.00
2017-12-17T16:07:09.514Z,12.00
2017-12-17T16:08:09.491Z,12.00
2017-12-17T16:09:09.472Z,12.00
2017-12-17T16:10:09.448Z,12.00
2017-12-17T16:11:09.426Z,12.00
2017-12-17T16:12:09.406Z,12.00
2017-12-17T16:13:09.383Z,12.00
2017-12-17T16:14:09.361Z,12.00
2017-12-17T16:15:09.340Z,12.00
2017-12-17T16:16:09.318Z,12.00
2017-12-17T16:17:09.295Z,12.00
2017-12-17T16:18:09.275Z,12.00
2017-12-17T16:19:09.253Z,12.00
2017-12-17T16:20:09.231Z,12.00
2017-12-17T16:21:09.210Z,12.00
2017-12-17T16:22:09.191Z,12.00
2017-12-17T16:23:09.166Z,12.00
2017-12-17T16:24:09.146Z,12.00
2017-12-17T16:25:09.122Z,12.00
2017-12-17T16:26:09.102Z,12.00
2017-12-17T16:27:09.080Z,12.00
2017-12-17T16:28:09.059Z,12.00
2017-12-17T16:29:09.036Z,12.00
2017-12-17T16:30:09.014Z,16.00
2017-12-17T16:31:08.994Z,16.00
2017-12-17T16:32:08.972Z,16.00
2017-12-17T16:33:08.951Z,16.00
2017-12-17T16:34:08.929Z,16.00
2017-12-17T16:35:08.906Z,16.00
2017-12-17T16:36:08.885Z,16.00
2017-12-17T16:37:08.862Z,16.00
2017-12-17T16:38:08.841Z,16.00
2017-12-17T16:39:08.819Z,16.00
2017-12-17T16:40:08.799Z,16.00
2017-12-17T16:41:08.777Z,16.00
2017-12-17T16:42:08.755Z,16.00
2017-12-17T16:43:08.735Z,16.00
2017-12-17T16:44:08.711Z,16.00
2017-12-17T16:45:08.690Z,16.00
2017-12-17T16:46:08.667Z,16.00
2017-12-17T16:47:08.646Z,16.00
2017-12-17T16:48:08.626Z,16.00
2017-12-17T16:49:08.602Z,16.00
2017-12-17T16:50:08.581Z,16.00
2017-12-17T16:51:08.561Z,16.00
2017-12-17T16:52:08.538Z,16.00
2017-12-17T16:53:08.520Z,16.00
2017-12-17T16:54:08.495Z,16.00
2017-12-17T16:55:08.473Z,16.00
2017-12-17T16:56:08.452Z,128.00
2017-12-17T16:57:08.430Z,148.00
2017-12-17T16:58:08.408Z,148.00
2017-12-17T16:59:08.390Z,144.00
2017-12-17T17:00:08.366Z,144.00
2017-12-17T17:01:08.343Z,144.00
2017-12-17T17:02:08.323Z,144.00
2017-12-17T17:03:08.300Z,144.00
2017-12-17T17:04:08.277Z,140.00
2017-12-17T17:05:08.257Z,140.00
2017-12-17T17:06:08.234Z,140.00
2017-12-17T17:07:08.214Z,140.00
2017-12-17T17:08:08.191Z,136.00
2017-12-17T17:09:08.171Z,136.00
2017-12-17T17:10:08.149Z,136.00
2017-12-17T17:11:08.127Z,136.00
2017-12-17T17:12:08.106Z,136.00
2017-12-17T17:13:08.084Z,136.00
2017-12-17T17:14:08.063Z,136.00
2017-12-17T17:15:08.041Z,140.00
2017-12-17T17:16:08.020Z,136.00
2017-12-17T17:17:07.997Z,136.00
2017-12-17T17:18:07.977Z,136.00
2017-12-17T17:19:07.957Z,4.00
2017-12-17T17:20:07.937Z,144.00
2017-12-17T17:21:07.910Z,144.00
2017-12-17T17:22:07.890Z,140.00
2017-12-17T17:23:07.868Z,140.00
2017-12-17T17:24:07.848Z,136.00
2017-12-17T17:25:07.824Z,140.00
2017-12-17T17:26:07.805Z,140.00
2017-12-17T17:27:07.782Z,136.00
2017-12-17T17:28:07.761Z,136.00
2017-12-17T17:29:07.738Z,136.00
2017-12-17T17:30:07.717Z,140.00
2017-12-17T17:31:07.698Z,140.00
2017-12-17T17:32:07.676Z,140.00
2017-12-17T17:33:07.652Z,136.00
2017-12-17T17:34:07.631Z,136.00
2017-12-17T17:35:07.610Z,136.00
2017-12-17T17:36:07.590Z,136.00
2017-12-17T17:37:07.567Z,140.00
2017-12-17T17:38:07.547Z,140.00
2017-12-17T17:39:07.529Z,140.00
2017-12-17T17:40:07.505Z,136.00
2017-12-17T17:41:07.482Z,136.00
2017-12-17T17:42:07.462Z,136.00
2017-12-17T17:43:07.438Z,136.00
2017-12-17T17:44:07.419Z,136.00
2017-12-17T17:45:07.402Z,140.00
2017-12-17T17:46:07.375Z,136.00
2017-12-17T17:47:07.352Z,136.00
2017-12-17T17:48:07.332Z,140.00
2017-12-17T17:49:07.316Z,140.00
2017-12-17T17:50:07.289Z,140.00
2017-12-17T17:51:07.267Z,136.00
2017-12-17T17:52:07.246Z,136.00
2017-12-17T17:53:07.224Z,140.00
2017-12-17T17:54:07.202Z,136.00
2017-12-17T17:55:07.181Z,136.00
2017-12-17T17:56:07.162Z,140.00
2017-12-17T17:57:07.137Z,136.00
2017-12-17T17:58:07.116Z,140.00
2017-12-17T17:59:07.094Z,140.00
2017-12-17T18:00:07.074Z,140.00
2017-12-17T18:01:07.051Z,140.00
2017-12-17T18:02:07.030Z,140.00
2017-12-17T18:03:07.008Z,136.00
2017-12-17T18:04:06.987Z,136.00
2017-12-17T18:05:06.965Z,140.00
2017-12-17T18:06:06.942Z,140.00
2017-12-17T18:07:06.922Z,136.00
2017-12-17T18:08:06.901Z,12.00
2017-12-17T18:09:06.878Z,12.00
2017-12-17T18:10:06.856Z,12.00
2017-12-17T18:11:06.842Z,12.00
2017-12-17T18:12:06.813Z,12.00
2017-12-17T18:13:06.791Z,12.00
2017-12-17T18:14:06.771Z,12.00
2017-12-17T18:15:06.787Z,12.00
2017-12-17T18:16:06.728Z,12.00
2017-12-17T18:17:06.705Z,12.00
2017-12-17T18:18:06.685Z,12.00
2017-12-17T18:19:06.664Z,12.00
2017-12-17T18:20:06.643Z,12.00
2017-12-17T18:21:06.620Z,12.00
2017-12-17T18:22:06.603Z,12.00
2017-12-17T18:23:06.577Z,12.00
2017-12-17T18:24:06.558Z,12.00
2017-12-17T18:25:06.534Z,12.00
2017-12-17T18:26:06.511Z,12.00
2017-12-17T18:27:06.491Z,12.00
2017-12-17T18:28:06.470Z,12.00
2017-12-17T18:29:06.446Z,12.00
2017-12-17T18:30:06.426Z,12.00
2017-12-17T18:31:06.405Z,12.00
2017-12-17T18:32:06.385Z,12.00
2017-12-17T18:33:06.365Z,12.00
2017-12-17T18:34:06.347Z,12.00
2017-12-17T18:35:06.318Z,12.00
2017-12-17T18:36:06.297Z,12.00
2017-12-17T18:37:06.274Z,12.00
2017-12-17T18:38:06.253Z,12.00
2017-12-17T18:39:06.233Z,12.00
2017-12-17T18:40:06.211Z,12.00
2017-12-17T18:41:06.189Z,12.00
2017-12-17T18:42:06.169Z,12.00
2017-12-17T18:43:06.146Z,12.00
2017-12-17T18:44:06.127Z,12.00
2017-12-17T18:45:06.103Z,12.00
2017-12-17T18:46:06.080Z,12.00
2017-12-17T18:47:06.059Z,12.00
2017-12-17T18:48:06.037Z,12.00
2017-12-17T18:49:06.017Z,12.00
2017-12-17T18:50:05.997Z,12.00
2017-12-17T18:51:05.973Z,12.00
2017-12-17T18:52:05.951Z,12.00
2017-12-17T18:53:05.930Z,12.00
2017-12-17T18:54:05.908Z,12.00
2017-12-17T18:55:05.886Z,12.00
2017-12-17T18:56:05.865Z,12.00
2017-12-17T18:57:05.842Z,12.00
2017-12-17T18:58:05.821Z,12.00
2017-12-17T18:59:05.800Z,12.00
2017-12-17T19:00:05.778Z,12.00
2017-12-17T19:01:05.756Z,12.00
2017-12-17T19:02:05.737Z,12.00
2017-12-17T19:03:05.713Z,12.00
2017-12-17T19:04:05.691Z,12.00
2017-12-17T19:05:05.671Z,12.00
2017-12-17T19:06:05.647Z,12.00
2017-12-17T19:07:05.625Z,12.00
2017-12-17T19:08:05.605Z,12.00
2017-12-17T19:09:05.583Z,12.00
2017-12-17T19:10:05.564Z,12.00
2017-12-17T19:11:05.539Z,12.00
2017-12-17T19:12:05.518Z,12.00
2017-12-17T19:13:05.495Z,12.00
2017-12-17T19:14:05.473Z,12.00
2017-12-17T19:15:05.453Z,12.00
2017-12-17T19:16:05.431Z,12.00
2017-12-17T19:17:05.409Z,16.00
2017-12-17T19:18:05.389Z,8.00
2017-12-17T19:19:05.365Z,12.00
2017-12-17T19:20:05.345Z,12.00
2017-12-17T19:21:05.322Z,12.00
2017-12-17T19:22:05.300Z,16.00
2017-12-17T19:23:05.278Z,12.00
2017-12-17T19:24:05.257Z,12.00
2017-12-17T19:25:05.234Z,12.00
2017-12-17T19:26:05.213Z,16.00
2017-12-17T19:27:05.191Z,20.00
2017-12-17T19:28:05.170Z,16.00
2017-12-17T19:29:05.148Z,20.00
2017-12-17T19:30:05.128Z,16.00
2017-12-17T19:31:05.105Z,20.00
2017-12-17T19:32:05.086Z,12.00
2017-12-17T19:33:05.061Z,12.00
2017-12-17T19:34:05.043Z,16.00
2017-12-17T19:35:05.018Z,16.00
2017-12-17T19:36:04.996Z,20.00
2017-12-17T19:37:04.975Z,20.00
2017-12-17T19:38:04.953Z,20.00
2017-12-17T19:39:04.932Z,16.00
2017-12-17T19:40:04.912Z,16.00
2017-12-17T19:41:04.889Z,16.00
2017-12-17T19:42:04.866Z,16.00
2017-12-17T19:43:04.846Z,16.00
2017-12-17T19:44:04.827Z,20.00
2017-12-17T19:45:04.802Z,20.00
2017-12-17T19:46:04.781Z,16.00
2017-12-17T19:47:04.759Z,20.00
2017-12-17T19:48:04.738Z,16.00
2017-12-17T19:49:04.716Z,16.00
2017-12-17T19:50:04.695Z,16.00
2017-12-17T19:51:04.674Z,12.00
2017-12-17T19:52:04.652Z,12.00
2017-12-17T19:53:04.631Z,16.00
2017-12-17T19:54:04.666Z,16.00
2017-12-17T19:55:04.587Z,16.00
2017-12-17T19:56:04.569Z,12.00
2017-12-17T19:57:04.545Z,16.00
2017-12-17T19:58:04.525Z,12.00
2017-12-17T19:59:04.501Z,16.00
2017-12-17T20:00:04.480Z,16.00
2017-12-17T20:01:04.458Z,16.00
2017-12-17T20:02:04.436Z,16.00
2017-12-17T20:03:04.415Z,12.00
2017-12-17T20:04:04.396Z,12.00
2017-12-17T20:05:04.372Z,16.00
2017-12-17T20:06:04.351Z,12.00
2017-12-17T20:07:04.329Z,16.00
2017-12-17T20:08:04.308Z,12.00
2017-12-17T20:09:04.285Z,16.00
2017-12-17T20:10:04.264Z,12.00
2017-12-17T20:11:04.244Z,16.00
2017-12-17T20:12:04.223Z,16.00
2017-12-17T20:13:04.199Z,16.00
2017-12-17T20:14:04.181Z,16.00
2017-12-17T20:15:04.157Z,16.00
2017-12-17T20:16:04.137Z,16.00
2017-12-17T20:17:04.114Z,16.00
2017-12-17T20:18:04.095Z,20.00
2017-12-17T20:19:04.071Z,16.00
2017-12-17T20:20:04.051Z,20.00
2017-12-17T20:21:04.028Z,16.00
2017-12-17T20:22:04.008Z,16.00
2017-12-17T20:23:03.985Z,16.00
2017-12-17T20:24:03.964Z,16.00
2017-12-17T20:25:03.941Z,20.00
2017-12-17T20:26:03.921Z,16.00
2017-12-17T20:27:03.906Z,16.00
2017-12-17T20:28:03.878Z,16.00
2017-12-17T20:29:03.857Z,16.00
2017-12-17T20:30:03.835Z,16.00
2017-12-17T20:31:03.814Z,12.00
2017-12-17T20:32:03.794Z,16.00
2017-12-17T20:33:03.770Z,16.00
2017-12-17T20:34:03.749Z,16.00
2017-12-17T20:35:03.728Z,16.00
2017-12-17T20:36:03.708Z,12.00
2017-12-17T20:37:03.687Z,16.00
2017-12-17T20:38:03.664Z,16.00
2017-12-17T20:39:03.643Z,16.00
2017-12-17T20:40:03.674Z,16.00
2017-12-17T20:41:03.600Z,12.00
2017-12-17T20:42:03.578Z,16.00
2017-12-17T20:43:03.558Z,16.00
2017-12-17T20:44:03.535Z,16.00
2017-12-17T20:45:03.514Z,16.00
2017-12-17T20:46:03.493Z,16.00
2017-12-17T20:47:03.470Z,16.00
2017-12-17T20:48:03.449Z,16.00
2017-12-17T20:49:03.429Z,16.00
2017-12-17T20:50:03.439Z,12.00
2017-12-17T20:51:03.385Z,16.00
2017-12-17T20:52:03.364Z,16.00
2017-12-17T20:53:03.343Z,16.00
2017-12-17T20:54:03.320Z,12.00
2017-12-17T20:55:03.299Z,12.00
2017-12-17T20:56:03.278Z,16.00
2017-12-17T20:57:03.255Z,16.00
2017-12-17T20:58:03.235Z,16.00
2017-12-17T20:59:03.215Z,16.00
2017-12-17T21:00:03.192Z,12.00
2017-12-17T21:01:03.170Z,16.00
2017-12-17T21:02:03.149Z,12.00
2017-12-17T21:03:03.128Z,16.00
2017-12-17T21:04:03.163Z,12.00
2017-12-17T21:05:03.087Z,16.00
2017-12-17T21:06:03.064Z,16.00
2017-12-17T21:07:03.044Z,16.00
2017-12-17T21:08:03.022Z,12.00
2017-12-17T21:09:03.000Z,16.00
2017-12-17T21:10:03.002Z,16.00
2017-12-17T21:11:02.958Z,12.00
2017-12-17T21:12:02.936Z,12.00
2017-12-17T21:13:02.915Z,16.00
2017-12-17T21:14:02.893Z,20.00
2017-12-17T21:15:02.872Z,12.00
2017-12-17T21:16:02.852Z,16.00
2017-12-17T21:17:02.829Z,12.00
2017-12-17T21:18:02.808Z,20.00
2017-12-17T21:19:02.786Z,16.00
2017-12-17T21:20:02.767Z,16.00
2017-12-17T21:21:02.745Z,16.00
2017-12-17T21:22:02.723Z,20.00
2017-12-17T21:23:02.701Z,16.00
2017-12-17T21:24:02.684Z,16.00
2017-12-17T21:25:02.659Z,16.00
2017-12-17T21:26:02.637Z,16.00
2017-12-17T21:27:02.616Z,16.00
2017-12-17T21:28:02.597Z,16.00
2017-12-17T21:29:02.573Z,16.00
2017-12-17T21:30:02.552Z,16.00
2017-12-17T21:31:02.531Z,16.00
2017-12-17T21:32:02.508Z,16.00
2017-12-17T21:33:02.488Z,16.00
2017-12-17T21:34:02.466Z,16.00
2017-12-17T21:35:02.445Z,16.00
2017-12-17T21:36:02.424Z,16.00
2017-12-17T21:37:02.401Z,12.00
2017-12-17T21:38:02.381Z,16.00
2017-12-17T21:39:02.362Z,20.00
2017-12-17T21:40:02.338Z,12.00
2017-12-17T21:41:02.316Z,12.00
2017-12-17T21:42:02.294Z,16.00
2017-12-17T21:43:02.274Z,12.00
2017-12-17T21:44:02.252Z,12.00
2017-12-17T21:45:02.232Z,16.00
2017-12-17T21:46:02.209Z,12.00
2017-12-17T21:47:02.188Z,12.00
2017-12-17T21:48:02.168Z,12.00
2017-12-17T21:49:02.145Z,12.00
2017-12-17T21:50:02.126Z,12.00
2017-12-17T21:51:02.106Z,16.00
2017-12-17T21:52:02.082Z,12.00
2017-12-17T21:53:02.061Z,12.00
2017-12-17T21:54:02.039Z,12.00
2017-12-17T21:55:02.017Z,16.00
2017-12-17T21:56:01.996Z,16.00
2017-12-17T21:57:01.974Z,16.00
2017-12-17T21:58:01.954Z,12.00
2017-12-17T21:59:01.932Z,12.00
2017-12-17T22:00:01.910Z,12.00
2017-12-17T22:01:01.892Z,16.00
2017-12-17T22:02:01.867Z,12.00
2017-12-17T22:03:01.846Z,16.00
2017-12-17T22:04:01.825Z,16.00
2017-12-17T22:05:01.802Z,12.00
2017-12-17T22:06:01.782Z,12.00
2017-12-17T22:07:01.761Z,12.00
2017-12-17T22:08:01.747Z,12.00
2017-12-17T22:09:01.717Z,16.00
2017-12-17T22:10:01.696Z,16.00
2017-12-17T22:11:01.678Z,12.00
2017-12-17T22:12:01.653Z,12.00
2017-12-17T22:13:01.633Z,16.00
2017-12-17T22:14:01.611Z,16.00
2017-12-17T22:15:01.598Z,16.00
2017-12-17T22:16:01.569Z,16.00
2017-12-17T22:17:01.547Z,12.00
2017-12-17T22:18:01.526Z,12.00
2017-12-17T22:19:01.505Z,12.00
2017-12-17T22:20:01.484Z,12.00
2017-12-17T22:21:01.462Z,16.00
2017-12-17T22:22:01.440Z,12.00
2017-12-17T22:23:01.419Z,16.00
2017-12-17T22:24:01.397Z,12.00
2017-12-17T22:25:01.375Z,16.00
2017-12-17T22:26:01.356Z,16.00
2017-12-17T22:27:01.333Z,16.00
2017-12-17T22:28:01.313Z,16.00
2017-12-17T22:29:01.290Z,16.00
2017-12-17T22:30:01.270Z,16.00
2017-12-17T22:31:01.249Z,16.00
2017-12-17T22:32:01.226Z,16.00
2017-12-17T22:33:01.205Z,16.00
2017-12-17T22:34:01.184Z,12.00
2017-12-17T22:35:01.163Z,12.00
2017-12-17T22:36:01.141Z,16.00
2017-12-17T22:37:01.119Z,16.00
2017-12-17T22:38:01.099Z,16.00
2017-12-17T22:39:01.077Z,12.00
2017-12-17T22:40:01.055Z,12.00
2017-12-17T22:41:01.034Z,12.00
2017-12-17T22:42:01.012Z,16.00
2017-12-17T22:43:00.991Z,12.00
2017-12-17T22:44:00.971Z,12.00
2017-12-17T22:45:00.996Z,12.00
2017-12-17T22:46:00.927Z,12.00
2017-12-17T22:47:00.906Z,12.00
2017-12-17T22:48:00.883Z,12.00
2017-12-17T22:49:00.862Z,16.00
2017-12-17T22:50:00.840Z,16.00
2017-12-17T22:51:00.819Z,12.00
2017-12-17T22:52:00.797Z,16.00
2017-12-17T22:53:00.775Z,16.00
2017-12-17T22:54:00.755Z,16.00
2017-12-17T22:55:00.734Z,12.00
2017-12-17T22:56:00.712Z,12.00
2017-12-17T22:57:00.688Z,12.00
2017-12-17T22:58:00.667Z,16.00
2017-12-17T22:59:00.647Z,0.00
2017-12-17T23:00:00.625Z,0.00
2017-12-17T23:01:00.601Z,0.00
2017-12-17T23:02:00.581Z,0.00
2017-12-17T23:03:00.608Z,0.00
2017-12-17T23:04:00.537Z,0.00
2017-12-17T23:05:00.515Z,0.00
2017-12-17T23:06:00.495Z,0.00
2017-12-17T23:07:00.472Z,0.00
2017-12-17T23:08:00.451Z,0.00
2017-12-17T23:09:00.428Z,0.00
2017-12-17T23:10:00.407Z,0.00
2017-12-17T23:11:00.385Z,0.00
2017-12-17T23:12:00.365Z,0.00
2017-12-17T23:13:00.342Z,0.00
2017-12-17T23:14:00.320Z,0.00
2017-12-17T23:15:00.298Z,0.00
2017-12-17T23:16:00.276Z,0.00
2017-12-17T23:17:00.255Z,0.00
2017-12-17T23:18:00.233Z,0.00
2017-12-17T23:19:00.213Z,0.00
2017-12-17T23:20:00.190Z,0.00
2017-12-17T23:21:00.167Z,0.00
2017-12-17T23:22:00.145Z,0.00
2017-12-17T23:23:00.124Z,0.00
2017-12-17T23:24:00.103Z,0.00
2017-12-17T23:25:00.079Z,0.00
2017-12-17T23:26:00.057Z,0.00
2017-12-17T23:27:00.036Z,0.00
2017-12-17T23:28:00.015Z,0.00
2017-12-17T23:28:59.991Z,0.00
2017-12-17T23:29:59.970Z,0.00
2017-12-17T23:30:59.948Z,0.00
2017-12-17T23:31:59.928Z,0.00
2017-12-17T23:32:59.903Z,0.00
2017-12-17T23:33:59.882Z,0.00